Time;durP1;ratioP1;P1;durP2;ratioP2;P2;SDS_P1;SDS_P2;PMS_P1;PMS_P2;Temp;Humidity;BMP_temperature;BMP_pressure;BME280_temperature;BME280_humidity;BME280_pressure;Samples;Min_cycle;Max_cycle;Signal;HPM_P1;HPM_P2
2022/02/13 22:13:57;;;;;;;29.70;13.90;;;;;;;2.53;56.30;99398.25;105719;1276;111536;-73
2022/02/13 22:16:26;;;;;;;29.70;13.90;;;;;;;2.54;56.42;99402.23;105902;1276;97895;-69
2022/02/13 22:18:54;;;;;;;24.80;12.10;;;;;;;2.57;56.39;99400.73;105836;1277;107750;-71
2022/02/13 22:21:22;;;;;;;27.00;12.50;;;;;;;2.59;56.40;99404.15;105964;1276;97935;-71
2022/02/13 22:23:49;;;;;;;27.30;13.20;;;;;;;2.59;56.49;99404.16;105937;1278;97928;-72
2022/02/13 22:26:17;;;;;;;28.90;13.20;;;;;;;2.55;56.44;99400.44;105998;1276;111388;-70
2022/02/13 22:28:45;;;;;;;30.10;15.10;;;;;;;2.53;56.25;99396.13;105921;1276;97894;-72
2022/02/13 22:31:13;;;;;;;27.40;12.20;;;;;;;2.52;56.73;99400.89;105913;1276;107955;-71
2022/02/13 22:33:41;;;;;;;26.80;13.00;;;;;;;2.51;56.62;99397.42;105824;1276;98002;-72
2022/02/13 22:36:09;;;;;;;25.20;11.40;;;;;;;2.49;56.61;99394.84;105916;1277;97999;-71
2022/02/13 22:38:38;;;;;;;30.90;14.20;;;;;;;2.48;56.78;99392.45;105887;1276;110993;-71
2022/02/13 22:41:06;;;;;;;25.80;12.70;;;;;;;2.46;56.75;99391.65;105908;1276;97922;-70
2022/02/13 22:43:34;;;;;;;27.70;12.10;;;;;;;2.46;56.49;99393.41;105946;1276;106741;-70
2022/02/13 22:46:02;;;;;;;26.70;12.00;;;;;;;2.44;56.74;99390.84;105996;1277;95353;-72
2022/02/13 22:48:30;;;;;;;28.10;12.30;;;;;;;2.44;56.78;99392.97;105987;1277;95210;-71
2022/02/13 22:50:59;;;;;;;27.50;13.00;;;;;;;2.45;56.95;99389.08;105888;1277;111329;-69
2022/02/13 22:53:29;;;;;;;28.90;13.10;;;;;;;2.44;56.57;99389.27;105920;1277;96300;-72
2022/02/13 22:55:57;;;;;;;27.00;12.70;;;;;;;2.45;56.45;99383.98;106015;1276;107828;-70
2022/02/13 22:58:25;;;;;;;28.30;13.40;;;;;;;2.43;57.02;99379.14;106042;1276;97953;-70
2022/02/13 23:00:53;;;;;;;24.50;10.70;;;;;;;2.43;56.71;99374.80;105943;1276;98707;-71
2022/02/13 23:03:22;;;;;;;28.80;12.40;;;;;;;2.43;57.10;99369.54;105993;1276;111489;-71
2022/02/13 23:05:52;;;;;;;29.50;12.00;;;;;;;2.45;56.92;99369.79;105956;1276;98366;-71
2022/02/13 23:13:57;;;;;;;29.80;12.70;;;;;;;2.54;57.45;99365.29;106048;1276;97860;-69
2022/02/13 23:16:26;;;;;;;28.70;12.80;;;;;;;2.55;57.49;99356.48;105895;1276;111267;-72
2022/02/13 23:18:55;;;;;;;27.90;12.40;;;;;;;2.56;57.50;99355.08;105919;1276;97894;-72
2022/02/13 23:21:23;;;;;;;28.40;13.80;;;;;;;2.56;57.46;99352.98;105986;1276;109039;-73
2022/02/13 23:23:52;;;;;;;28.80;13.40;;;;;;;2.55;57.67;99348.98;105983;1276;97966;-73
2022/02/13 23:26:20;;;;;;;27.80;11.90;;;;;;;2.52;57.18;99349.23;106044;1276;97835;-71
2022/02/13 23:28:48;;;;;;;26.20;12.40;;;;;;;2.52;57.48;99353.27;105954;1276;111359;-70
2022/02/13 23:31:15;;;;;;;28.80;13.20;;;;;;;2.52;57.49;99353.79;106046;1276;95837;-70
2022/02/13 23:33:43;;;;;;;27.20;12.00;;;;;;;2.52;57.60;99353.64;106064;1276;107761;-71
2022/02/13 23:36:11;;;;;;;26.70;12.40;;;;;;;2.53;57.79;99349.58;106021;1276;97900;-71
2022/02/13 23:38:40;;;;;;;29.20;13.30;;;;;;;2.54;57.68;99350.74;106043;1276;95381;-71
2022/02/13 23:41:08;;;;;;;28.70;12.40;;;;;;;2.53;57.69;99346.90;106045;1276;111327;-73
2022/02/13 23:43:36;;;;;;;26.00;12.10;;;;;;;2.53;57.69;99348.50;106056;1276;95323;-71
2022/02/13 23:46:04;;;;;;;28.60;13.10;;;;;;;2.54;57.66;99346.55;106019;1276;107575;-72
2022/02/13 23:48:32;;;;;;;26.80;13.20;;;;;;;2.54;57.52;99346.37;106010;1276;97995;-72
2022/02/13 23:51:01;;;;;;;28.40;13.00;;;;;;;2.53;57.61;99344.83;106029;1276;95313;-71
2022/02/13 23:53:30;;;;;;;28.10;13.80;;;;;;;2.53;57.62;99339.92;106028;1276;111411;-73
2022/02/13 23:55:58;;;;;;;28.40;13.60;;;;;;;2.51;57.44;99341.73;106072;1276;95426;-72
2022/02/13 23:58:26;;;;;;;25.40;11.80;;;;;;;2.51;57.43;99342.10;106025;1276;107577;-71
